Umm Slal — V7PW3 — position and weather

sailwx.info

Track history (hours):
 
Tides and Currents Weather Stations Pressure Air Temp Water Temp Dewpoint Dewpoint Depression Visibility Wind Speed Wind Dir Waves Ship Positions

Umm Slal

Last reported at 2017-Nov-12 11:41 UTC. Time now 2017-Nov-25 06:06 UTC.
Position N 36°16' E 015°04'.
Warning: this ship's position is 12 days out of date.

Length 345 m; draft 9.4 m.

Type: Ship (hazmat cat D). MMSI: 538003300.

Date/timePositionNaut miles runAvg speedWind from/ knotsBaromVisibWave heightAir tempDewpointWater temp
2017-Nov-12 11:41N 36°16' E 015°04'417.6
2017-Nov-12 11:27N 36°17' E 014°58'817.6
2017-Nov-12 11:00N 36°18' E 014°49'917.8
2017-Nov-12 10:30N 36°21' E 014°38'917.8
2017-Nov-12 10:00N 36°24' E 014°28'917.9
2017-Nov-12 09:30N 36°26' E 014°17'918.0
2017-Nov-12 09:00N 36°28' E 014°06'918.2
2017-Nov-12 08:30N 36°31' E 013°55'  
2017-Nov-10 04:13N 36°00' W 005°00'518.6
2017-Nov-10 03:58N 36°00' W 005°06'817.4
2017-Nov-10 03:31N 36°02' W 005°16'711.8
2017-Nov-10 02:55N 36°07' W 005°23'1 1.6
2017-Nov-10 02:29N 36°07' W 005°22'0 0.0
2017-Nov-10 00:31N 36°07' W 005°22'0 0.1
2017-Nov-10 00:25N 36°07' W 005°22'0 0.0
2017-Nov-09 23:44N 36°07' W 005°22'0 0.1
2017-Nov-09 23:26N 36°07' W 005°22'0 0.1
2017-Nov-09 22:56N 36°07' W 005°22'0 0.0
2017-Nov-09 22:21N 36°07' W 005°22'7 0.3
2017-Nov-08 19:58N 36°02' W 005°16'817.0
2017-Nov-08 19:29N 35°59' W 005°25'  
2017-Nov-04 20:00N 51°42' W 005°05'0 0.0
2017-Nov-04 19:30N 51°42' W 005°05'0 0.0
2017-Nov-04 18:58N 51°42' W 005°05'0 0.1
2017-Nov-04 18:31N 51°42' W 005°05'1 2.8
2017-Nov-04 18:01N 51°42' W 005°07'4 7.9
2017-Nov-04 17:31N 51°39' W 005°11'5 9.1
2017-Nov-04 17:01N 51°35' W 005°14'713.3
2017-Nov-04 16:30N 51°28' W 005°17'5 9.6
2017-Nov-04 16:00N 51°23' W 005°16'1 2.5
2017-Nov-04 15:30N 51°24' W 005°17'1 2.9
2017-Nov-04 15:00N 51°25' W 005°19'1 2.9
2017-Nov-04 14:30N 51°26' W 005°21'1 2.9
2017-Nov-04 14:00N 51°27' W 005°23'1 2.8
2017-Nov-04 13:30N 51°28' W 005°25'1 2.6
2017-Nov-04 13:00N 51°29' W 005°25'1 2.1
2017-Nov-04 12:30N 51°30' W 005°26'2 5.0
2017-Nov-04 12:00N 51°28' W 005°26'713.6
2017-Nov-04 11:30N 51°22' W 005°32'713.7
2017-Nov-04 10:59N 51°16' W 005°39'713.8
2017-Nov-04 10:29N 51°11' W 005°46'813.8
2017-Nov-04 09:56N 51°05' W 005°54'  
Track history (hours):
 
Tides and Currents Weather Stations Pressure Air Temp Water Temp Dewpoint Dewpoint Depression Visibility Wind Speed Wind Dir Waves Ship Positions

Umm Slal

Last reported at 2017-Nov-12 11:41 UTC. Time now 2017-Nov-25 06:06 UTC.
Position N 36°16' E 015°04'.
Warning: this ship's position is 12 days out of date.

Length 345 m; draft 9.4 m.

Type: Ship (hazmat cat D). MMSI: 538003300.

Date/timePositionNaut miles runAvg speedWind from/ knotsBaromVisibWave heightAir tempDewpointWater temp
2017-Nov-12 11:41N 36°16' E 015°04'417.6
2017-Nov-12 11:27N 36°17' E 014°58'817.6
2017-Nov-12 11:00N 36°18' E 014°49'917.8
2017-Nov-12 10:30N 36°21' E 014°38'917.8
2017-Nov-12 10:00N 36°24' E 014°28'917.9
2017-Nov-12 09:30N 36°26' E 014°17'918.0
2017-Nov-12 09:00N 36°28' E 014°06'918.2
2017-Nov-12 08:30N 36°31' E 013°55'  
2017-Nov-10 04:13N 36°00' W 005°00'518.6
2017-Nov-10 03:58N 36°00' W 005°06'817.4
2017-Nov-10 03:31N 36°02' W 005°16'711.8
2017-Nov-10 02:55N 36°07' W 005°23'1 1.6
2017-Nov-10 02:29N 36°07' W 005°22'0 0.0
2017-Nov-10 00:31N 36°07' W 005°22'0 0.1
2017-Nov-10 00:25N 36°07' W 005°22'0 0.0
2017-Nov-09 23:44N 36°07' W 005°22'0 0.1
2017-Nov-09 23:26N 36°07' W 005°22'0 0.1
2017-Nov-09 22:56N 36°07' W 005°22'0 0.0
2017-Nov-09 22:21N 36°07' W 005°22'7 0.3
2017-Nov-08 19:58N 36°02' W 005°16'817.0
2017-Nov-08 19:29N 35°59' W 005°25'  
2017-Nov-04 20:00N 51°42' W 005°05'0 0.0
2017-Nov-04 19:30N 51°42' W 005°05'0 0.0
2017-Nov-04 18:58N 51°42' W 005°05'0 0.1
2017-Nov-04 18:31N 51°42' W 005°05'1 2.8
2017-Nov-04 18:01N 51°42' W 005°07'4 7.9
2017-Nov-04 17:31N 51°39' W 005°11'5 9.1
2017-Nov-04 17:01N 51°35' W 005°14'713.3
2017-Nov-04 16:30N 51°28' W 005°17'5 9.6
2017-Nov-04 16:00N 51°23' W 005°16'1 2.5
2017-Nov-04 15:30N 51°24' W 005°17'1 2.9
2017-Nov-04 15:00N 51°25' W 005°19'1 2.9
2017-Nov-04 14:30N 51°26' W 005°21'1 2.9
2017-Nov-04 14:00N 51°27' W 005°23'1 2.8
2017-Nov-04 13:30N 51°28' W 005°25'1 2.6
2017-Nov-04 13:00N 51°29' W 005°25'1 2.1
2017-Nov-04 12:30N 51°30' W 005°26'2 5.0
2017-Nov-04 12:00N 51°28' W 005°26'713.6
2017-Nov-04 11:30N 51°22' W 005°32'713.7
2017-Nov-04 10:59N 51°16' W 005°39'713.8
2017-Nov-04 10:29N 51°11' W 005°46'813.8
2017-Nov-04 09:56N 51°05' W 005°54'  

Dump ship's entire track history